Terminal Aerodrome Forecast
Issued by NWS

Home | Current Version | Previous Version | Text Only | Print | Product List | Glossary On
Versions: 1 2 3 4 5 6 7 8 9 10 11 12 13 14 15 16 17
000
FTUS46 KMTR 300535
TAFSNS
TAF
KSNS 300535Z 3006/3106 25010KT P6SM OVC013
     FM300700 28010KT P6SM OVC008
     FM301400 27009KT P6SM OVC006
     FM301900 27012KT P6SM SCT015
     FM302100 26015KT P6SM SKC
     FM310300 26010KT P6SM OVC010=

USA.gov is the U.S. government's official web portal to all federal, state and local government web resources and services.